sensor_id;sensor_type;location;lat;lon;timestamp;pressure;altitude;pressure_sealevel;temperature;humidity
58668;BME280;59852;43.086;25.634;2022-09-02T00:01:50;98568.13;;;19.87;84.72
58668;BME280;59852;43.086;25.634;2022-09-02T00:04:20;98567.56;;;20.00;84.59
58668;BME280;59852;43.086;25.634;2022-09-02T00:06:47;98564.00;;;20.16;84.04
58668;BME280;59852;43.086;25.634;2022-09-02T00:09:13;98559.00;;;19.90;84.84
58668;BME280;59852;43.086;25.634;2022-09-02T00:11:41;98567.25;;;19.95;85.07
58668;BME280;59852;43.086;25.634;2022-09-02T00:14:08;98570.06;;;19.93;85.72
58668;BME280;59852;43.086;25.634;2022-09-02T00:16:35;98568.25;;;19.94;84.71
58668;BME280;59852;43.086;25.634;2022-09-02T00:19:01;98562.50;;;19.82;85.31
58668;BME280;59852;43.086;25.634;2022-09-02T00:21:27;98565.78;;;19.92;85.04
58668;BME280;59852;43.086;25.634;2022-09-02T00:23:52;98561.16;;;19.86;84.95
58668;BME280;59852;43.086;25.634;2022-09-02T00:26:18;98568.84;;;19.73;85.19
58668;BME280;59852;43.086;25.634;2022-09-02T00:28:44;98567.72;;;19.59;86.07
58668;BME280;59852;43.086;25.634;2022-09-02T00:31:10;98563.84;;;19.78;84.62
58668;BME280;59852;43.086;25.634;2022-09-02T00:33:35;98569.59;;;19.90;84.61
58668;BME280;59852;43.086;25.634;2022-09-02T00:36:01;98564.09;;;19.60;85.26
58668;BME280;59852;43.086;25.634;2022-09-02T00:38:28;98569.53;;;19.67;84.98
58668;BME280;59852;43.086;25.634;2022-09-02T00:40:53;98562.50;;;19.82;84.55
58668;BME280;59852;43.086;25.634;2022-09-02T00:43:37;98571.91;;;19.93;83.97
58668;BME280;59852;43.086;25.634;2022-09-02T00:46:03;98562.69;;;19.72;84.79
58668;BME280;59852;43.086;25.634;2022-09-02T00:48:30;98564.28;;;19.90;84.51
58668;BME280;59852;43.086;25.634;2022-09-02T00:50:55;98571.38;;;19.50;85.50
58668;BME280;59852;43.086;25.634;2022-09-02T00:53:20;98571.31;;;19.74;85.20
58668;BME280;59852;43.086;25.634;2022-09-02T00:55:47;98560.94;;;19.48;85.73
58668;BME280;59852;43.086;25.634;2022-09-02T00:58:15;98570.47;;;19.82;84.56
58668;BME280;59852;43.086;25.634;2022-09-02T01:00:42;98565.56;;;19.63;85.15
58668;BME280;59852;43.086;25.634;2022-09-02T01:03:09;98568.84;;;19.65;85.00
58668;BME280;59852;43.086;25.634;2022-09-02T01:05:36;98574.22;;;19.40;85.96
58668;BME280;59852;43.086;25.634;2022-09-02T01:08:03;98574.34;;;19.63;85.82
58668;BME280;59852;43.086;25.634;2022-09-02T01:10:32;98575.19;;;19.56;86.13
58668;BME280;59852;43.086;25.634;2022-09-02T01:12:59;98580.50;;;19.56;84.47
58668;BME280;59852;43.086;25.634;2022-09-02T01:15:26;98575.53;;;19.61;83.71
58668;BME280;59852;43.086;25.634;2022-09-02T01:17:51;98580.00;;;19.60;84.39
58668;BME280;59852;43.086;25.634;2022-09-02T01:20:19;98577.66;;;19.65;84.04
58668;BME280;59852;43.086;25.634;2022-09-02T01:22:45;98572.69;;;19.54;84.21
58668;BME280;59852;43.086;25.634;2022-09-02T01:25:13;98580.56;;;19.07;85.98
58668;BME280;59852;43.086;25.634;2022-09-02T01:27:39;98577.19;;;19.45;85.22
58668;BME280;59852;43.086;25.634;2022-09-02T01:30:05;98582.53;;;19.29;84.94
58668;BME280;59852;43.086;25.634;2022-09-02T01:32:31;98583.00;;;19.49;84.75
58668;BME280;59852;43.086;25.634;2022-09-02T01:34:57;98581.00;;;19.35;84.45
58668;BME280;59852;43.086;25.634;2022-09-02T01:37:23;98582.84;;;19.34;85.32
58668;BME280;59852;43.086;25.634;2022-09-02T01:39:48;98595.44;;;19.32;85.20
58668;BME280;59852;43.086;25.634;2022-09-02T01:42:16;98591.16;;;19.15;85.56
58668;BME280;59852;43.086;25.634;2022-09-02T01:44:42;98600.56;;;19.42;84.91
58668;BME280;59852;43.086;25.634;2022-09-02T01:47:14;98589.59;;;19.61;83.36
58668;BME280;59852;43.086;25.634;2022-09-02T01:49:40;98587.66;;;19.39;84.69
58668;BME280;59852;43.086;25.634;2022-09-02T01:52:05;98591.16;;;19.15;85.52
58668;BME280;59852;43.086;25.634;2022-09-02T01:54:31;98589.47;;;19.38;85.01
58668;BME280;59852;43.086;25.634;2022-09-02T01:56:56;98589.78;;;19.52;84.47
58668;BME280;59852;43.086;25.634;2022-09-02T01:59:21;98587.31;;;19.34;85.65
58668;BME280;59852;43.086;25.634;2022-09-02T02:01:47;98589.34;;;19.15;86.54
58668;BME280;59852;43.086;25.634;2022-09-02T02:04:12;98580.56;;;19.15;86.77
58668;BME280;59852;43.086;25.634;2022-09-02T02:06:44;98585.84;;;19.31;85.76
58668;BME280;59852;43.086;25.634;2022-09-02T02:09:11;98583.81;;;19.49;85.16
58668;BME280;59852;43.086;25.634;2022-09-02T02:11:37;98576.34;;;19.53;84.25
58668;BME280;59852;43.086;25.634;2022-09-02T02:14:02;98583.19;;;19.31;85.44
58668;BME280;59852;43.086;25.634;2022-09-02T02:16:27;98580.88;;;19.20;85.44
58668;BME280;59852;43.086;25.634;2022-09-02T02:18:53;98574.25;;;19.16;85.54
58668;BME280;59852;43.086;25.634;2022-09-02T02:21:18;98578.88;;;19.22;85.85
58668;BME280;59852;43.086;25.634;2022-09-02T02:23:44;98575.91;;;19.17;85.78
58668;BME280;59852;43.086;25.634;2022-09-02T02:26:09;98578.22;;;19.28;85.96
58668;BME280;59852;43.086;25.634;2022-09-02T02:28:34;98577.34;;;19.36;85.54
58668;BME280;59852;43.086;25.634;2022-09-02T02:31:00;98574.53;;;19.45;85.53
58668;BME280;59852;43.086;25.634;2022-09-02T02:33:26;98583.72;;;19.18;86.71
58668;BME280;59852;43.086;25.634;2022-09-02T02:35:53;98586.19;;;19.12;86.99
58668;BME280;59852;43.086;25.634;2022-09-02T02:38:18;98580.91;;;19.12;86.06
58668;BME280;59852;43.086;25.634;2022-09-02T02:40:43;98575.88;;;19.41;84.90
58668;BME280;59852;43.086;25.634;2022-09-02T02:43:09;98571.88;;;19.45;84.45
58668;BME280;59852;43.086;25.634;2022-09-02T02:45:34;98569.44;;;19.28;85.12
58668;BME280;59852;43.086;25.634;2022-09-02T02:48:00;98571.78;;;19.06;86.00
58668;BME280;59852;43.086;25.634;2022-09-02T02:50:25;98574.91;;;19.26;86.25
58668;BME280;59852;43.086;25.634;2022-09-02T02:52:51;98573.94;;;19.27;85.48
58668;BME280;59852;43.086;25.634;2022-09-02T02:55:19;98572.94;;;19.20;86.74
58668;BME280;59852;43.086;25.634;2022-09-02T02:57:44;98568.94;;;19.24;86.09
58668;BME280;59852;43.086;25.634;2022-09-02T03:00:11;98565.63;;;19.22;86.08
58668;BME280;59852;43.086;25.634;2022-09-02T03:02:38;98565.63;;;19.22;85.61
58668;BME280;59852;43.086;25.634;2022-09-02T03:05:04;98562.44;;;19.43;85.36
58668;BME280;59852;43.086;25.634;2022-09-02T03:07:29;98566.44;;;19.31;85.66
58668;BME280;59852;43.086;25.634;2022-09-02T03:09:55;98567.28;;;19.31;85.56
58668;BME280;59852;43.086;25.634;2022-09-02T03:12:20;98555.59;;;19.65;84.63
58668;BME280;59852;43.086;25.634;2022-09-02T03:14:45;98562.50;;;19.82;83.63
58668;BME280;59852;43.086;25.634;2022-09-02T03:17:11;98563.13;;;19.92;83.29
58668;BME280;59852;43.086;25.634;2022-09-02T03:19:36;98556.53;;;19.80;84.51
58668;BME280;59852;43.086;25.634;2022-09-02T03:22:02;98549.22;;;19.82;84.83
58668;BME280;59852;43.086;25.634;2022-09-02T03:24:27;98562.44;;;19.59;85.98
58668;BME280;59852;43.086;25.634;2022-09-02T03:26:53;98563.59;;;19.57;86.21
58668;BME280;59852;43.086;25.634;2022-09-02T03:29:18;98567.09;;;19.33;86.03
58668;BME280;59852;43.086;25.634;2022-09-02T03:31:43;98568.25;;;19.38;85.29
58668;BME280;59852;43.086;25.634;2022-09-02T03:34:09;98572.59;;;19.23;85.66
58668;BME280;59852;43.086;25.634;2022-09-02T03:36:38;98570.47;;;19.18;85.90
58668;BME280;59852;43.086;25.634;2022-09-02T03:39:05;98573.38;;;19.48;84.62
58668;BME280;59852;43.086;25.634;2022-09-02T03:41:30;98579.06;;;19.20;85.47
58668;BME280;59852;43.086;25.634;2022-09-02T03:43:56;98575.41;;;19.13;86.57
58668;BME280;59852;43.086;25.634;2022-09-02T03:46:22;98579.88;;;19.37;85.78
58668;BME280;59852;43.086;25.634;2022-09-02T03:48:47;98572.09;;;19.19;86.50
58668;BME280;59852;43.086;25.634;2022-09-02T03:51:16;98578.34;;;19.43;86.11
58668;BME280;59852;43.086;25.634;2022-09-02T03:53:42;98577.69;;;19.41;85.39
58668;BME280;59852;43.086;25.634;2022-09-02T03:56:08;98575.53;;;19.36;86.42
58668;BME280;59852;43.086;25.634;2022-09-02T03:58:36;98583.19;;;19.15;86.65
58668;BME280;59852;43.086;25.634;2022-09-02T04:01:02;98581.66;;;19.45;86.20
58668;BME280;59852;43.086;25.634;2022-09-02T04:03:27;98592.41;;;19.52;85.33
58668;BME280;59852;43.086;25.634;2022-09-02T04:05:53;98594.13;;;19.28;86.73
58668;BME280;59852;43.086;25.634;2022-09-02T04:08:18;98592.63;;;19.42;86.66
58668;BME280;59852;43.086;25.634;2022-09-02T04:10:44;98595.91;;;19.44;86.28
58668;BME280;59852;43.086;25.634;2022-09-02T04:13:09;98602.56;;;19.40;87.10
58668;BME280;59852;43.086;25.634;2022-09-02T04:15:38;98608.19;;;19.45;87.07
58668;BME280;59852;43.086;25.634;2022-09-02T04:18:06;98612.19;;;19.57;85.96
58668;BME280;59852;43.086;25.634;2022-09-02T04:20:32;98613.31;;;19.46;85.83
58668;BME280;59852;43.086;25.634;2022-09-02T04:22:57;98607.16;;;19.70;85.10
58668;BME280;59852;43.086;25.634;2022-09-02T04:25:22;98610.63;;;19.79;85.79
58668;BME280;59852;43.086;25.634;2022-09-02T04:27:48;98614.94;;;19.80;85.44
58668;BME280;59852;43.086;25.634;2022-09-02T04:30:13;98617.69;;;19.95;85.21
58668;BME280;59852;43.086;25.634;2022-09-02T04:32:41;98614.88;;;19.96;84.32
58668;BME280;59852;43.086;25.634;2022-09-02T04:35:06;98610.19;;;20.07;83.86
58668;BME280;59852;43.086;25.634;2022-09-02T04:37:31;98615.78;;;20.12;83.73
58668;BME280;59852;43.086;25.634;2022-09-02T04:39:57;98604.13;;;19.90;84.00
58668;BME280;59852;43.086;25.634;2022-09-02T04:42:22;98621.47;;;20.09;84.55
58668;BME280;59852;43.086;25.634;2022-09-02T04:44:49;98620.94;;;20.13;84.02
58668;BME280;59852;43.086;25.634;2022-09-02T04:47:15;98624.63;;;19.96;84.96
58668;BME280;59852;43.086;25.634;2022-09-02T04:49:40;98617.66;;;20.03;85.22
58668;BME280;59852;43.086;25.634;2022-09-02T04:52:07;98633.72;;;20.10;84.44
58668;BME280;59852;43.086;25.634;2022-09-02T04:54:33;98625.31;;;20.37;84.38
58668;BME280;59852;43.086;25.634;2022-09-02T04:56:58;98627.66;;;20.32;84.18
58668;BME280;59852;43.086;25.634;2022-09-02T04:59:24;98626.84;;;20.23;84.04
58668;BME280;59852;43.086;25.634;2022-09-02T05:01:49;98632.19;;;20.15;84.01
58668;BME280;59852;43.086;25.634;2022-09-02T05:04:15;98635.19;;;20.20;84.42
58668;BME280;59852;43.086;25.634;2022-09-02T05:06:40;98632.69;;;20.19;85.72
58668;BME280;59852;43.086;25.634;2022-09-02T05:09:06;98634.78;;;20.31;85.61
58668;BME280;59852;43.086;25.634;2022-09-02T05:11:32;98633.09;;;20.47;83.75
58668;BME280;59852;43.086;25.634;2022-09-02T05:13:59;98635.81;;;20.61;82.72
58668;BME280;59852;43.086;25.634;2022-09-02T05:16:29;98634.84;;;20.54;83.37
58668;BME280;59852;43.086;25.634;2022-09-02T05:18:54;98628.25;;;20.50;83.66
58668;BME280;59852;43.086;25.634;2022-09-02T05:21:20;98635.81;;;20.61;82.85
58668;BME280;59852;43.086;25.634;2022-09-02T05:23:47;98625.59;;;20.73;81.31
58668;BME280;59852;43.086;25.634;2022-09-02T05:26:12;98621.94;;;20.74;80.54
58668;BME280;59852;43.086;25.634;2022-09-02T05:28:38;98625.78;;;20.72;80.01
58668;BME280;59852;43.086;25.634;2022-09-02T05:31:05;98619.69;;;20.63;79.67
58668;BME280;59852;43.086;25.634;2022-09-02T05:33:31;98622.53;;;20.61;81.76
58668;BME280;59852;43.086;25.634;2022-09-02T05:35:57;98621.91;;;20.51;80.48
58668;BME280;59852;43.086;25.634;2022-09-02T05:38:22;98615.78;;;20.51;80.82
58668;BME280;59852;43.086;25.634;2022-09-02T05:40:49;98612.16;;;20.75;79.16
58668;BME280;59852;43.086;25.634;2022-09-02T05:43:14;98607.88;;;20.88;79.22
58668;BME280;59852;43.086;25.634;2022-09-02T05:45:40;98615.63;;;20.98;78.27
58668;BME280;59852;43.086;25.634;2022-09-02T05:48:05;98609.66;;;20.96;78.80
58668;BME280;59852;43.086;25.634;2022-09-02T05:50:50;98613.94;;;21.20;78.96
58668;BME280;59852;43.086;25.634;2022-09-02T05:53:16;98612.34;;;21.34;77.57
58668;BME280;59852;43.086;25.634;2022-09-02T05:55:41;98614.34;;;21.32;76.48
58668;BME280;59852;43.086;25.634;2022-09-02T05:58:06;98612.63;;;21.39;76.92
58668;BME280;59852;43.086;25.634;2022-09-02T06:00:32;98614.72;;;21.29;77.43
58668;BME280;59852;43.086;25.634;2022-09-02T06:02:57;98619.06;;;21.59;76.35
58668;BME280;59852;43.086;25.634;2022-09-02T06:05:23;98622.81;;;21.50;77.27
58668;BME280;59852;43.086;25.634;2022-09-02T06:07:48;98623.63;;;21.51;77.23
58668;BME280;59852;43.086;25.634;2022-09-02T06:10:13;98630.09;;;21.56;76.65
58668;BME280;59852;43.086;25.634;2022-09-02T06:12:39;98624.00;;;21.62;77.13
58668;BME280;59852;43.086;25.634;2022-09-02T06:15:06;98616.78;;;21.56;76.65
58668;BME280;59852;43.086;25.634;2022-09-02T06:17:31;98622.81;;;21.50;78.11
58668;BME280;59852;43.086;25.634;2022-09-02T06:19:56;98623.75;;;21.57;76.75
58668;BME280;59852;43.086;25.634;2022-09-02T06:22:22;98623.94;;;21.70;75.01
58668;BME280;59852;43.086;25.634;2022-09-02T06:24:47;98631.09;;;21.85;74.78
58668;BME280;59852;43.086;25.634;2022-09-02T06:27:12;98642.28;;;21.80;73.95
58668;BME280;59852;43.086;25.634;2022-09-02T06:29:38;98626.59;;;22.00;72.72
58668;BME280;59852;43.086;25.634;2022-09-02T06:32:04;98633.41;;;22.17;71.81
58668;BME280;59852;43.086;25.634;2022-09-02T06:34:29;98626.97;;;22.26;71.76
58668;BME280;59852;43.086;25.634;2022-09-02T06:36:54;98630.53;;;22.33;71.64
58668;BME280;59852;43.086;25.634;2022-09-02T06:39:22;98633.03;;;22.20;71.28
58668;BME280;59852;43.086;25.634;2022-09-02T06:41:49;98627.44;;;22.15;71.94
58668;BME280;59852;43.086;25.634;2022-09-02T06:44:15;98629.06;;;22.31;72.01
58668;BME280;59852;43.086;25.634;2022-09-02T06:46:45;98636.41;;;22.44;71.46
58668;BME280;59852;43.086;25.634;2022-09-02T06:49:12;98643.91;;;22.55;70.56
58668;BME280;59852;43.086;25.634;2022-09-02T06:51:41;98627.22;;;22.68;71.17
58668;BME280;59852;43.086;25.634;2022-09-02T06:54:08;98635.78;;;22.63;70.26
58668;BME280;59852;43.086;25.634;2022-09-02T06:56:34;98634.91;;;22.77;70.31
58668;BME280;59852;43.086;25.634;2022-09-02T06:58:59;98633.47;;;22.96;70.00
58668;BME280;59852;43.086;25.634;2022-09-02T07:01:26;98629.09;;;22.88;69.57
58668;BME280;59852;43.086;25.634;2022-09-02T07:03:52;98628.34;;;22.80;70.18
58668;BME280;59852;43.086;25.634;2022-09-02T07:06:44;98629.34;;;22.94;68.85
58668;BME280;59852;43.086;25.634;2022-09-02T07:09:14;98624.19;;;23.13;67.69
58668;BME280;59852;43.086;25.634;2022-09-02T07:11:39;98623.91;;;23.30;67.65
58668;BME280;59852;43.086;25.634;2022-09-02T07:14:05;98620.75;;;23.47;67.47
58668;BME280;59852;43.086;25.634;2022-09-02T07:16:32;98618.34;;;23.53;67.59
58668;BME280;59852;43.086;25.634;2022-09-02T07:18:58;98617.41;;;23.60;66.94
58668;BME280;59852;43.086;25.634;2022-09-02T07:21:25;98616.16;;;23.63;65.51
58668;BME280;59852;43.086;25.634;2022-09-02T07:23:51;98618.50;;;23.79;65.32
58668;BME280;59852;43.086;25.634;2022-09-02T07:26:16;98620.41;;;23.85;64.34
58668;BME280;59852;43.086;25.634;2022-09-02T07:28:42;98613.69;;;23.96;64.30
58668;BME280;59852;43.086;25.634;2022-09-02T07:31:08;98614.97;;;24.07;62.21
58668;BME280;59852;43.086;25.634;2022-09-02T07:33:34;98619.78;;;24.24;62.56
58668;BME280;59852;43.086;25.634;2022-09-02T07:36:01;98613.47;;;24.32;62.77
58668;BME280;59852;43.086;25.634;2022-09-02T07:38:27;98611.63;;;24.39;60.59
58668;BME280;59852;43.086;25.634;2022-09-02T07:40:52;98617.22;;;24.57;60.33
58668;BME280;59852;43.086;25.634;2022-09-02T07:43:17;98617.69;;;24.74;59.74
58668;BME280;59852;43.086;25.634;2022-09-02T07:45:43;98616.88;;;24.87;58.15
58668;BME280;59852;43.086;25.634;2022-09-02T07:48:08;98618.31;;;24.70;60.01
58668;BME280;59852;43.086;25.634;2022-09-02T07:50:34;98617.44;;;24.49;60.93
58668;BME280;59852;43.086;25.634;2022-09-02T07:53:00;98625.63;;;24.48;59.96
58668;BME280;59852;43.086;25.634;2022-09-02T07:55:30;98616.00;;;24.67;58.85
58668;BME280;59852;43.086;25.634;2022-09-02T07:57:55;98621.59;;;24.85;58.25
58668;BME280;59852;43.086;25.634;2022-09-02T08:00:21;98627.00;;;25.05;58.15
58668;BME280;59852;43.086;25.634;2022-09-02T08:02:47;98625.97;;;25.26;59.48
58668;BME280;59852;43.086;25.634;2022-09-02T08:05:13;98623.72;;;25.36;56.98
58668;BME280;59852;43.086;25.634;2022-09-02T08:07:38;98621.03;;;25.42;56.41
58668;BME280;59852;43.086;25.634;2022-09-02T08:10:05;98620.84;;;25.31;56.14
58668;BME280;59852;43.086;25.634;2022-09-02T08:12:31;98613.81;;;25.16;56.10
58668;BME280;59852;43.086;25.634;2022-09-02T08:14:56;98612.53;;;24.86;57.17
58668;BME280;59852;43.086;25.634;2022-09-02T08:17:22;98614.19;;;24.74;58.25
58668;BME280;59852;43.086;25.634;2022-09-02T08:19:48;98623.25;;;24.79;58.57
58668;BME280;59852;43.086;25.634;2022-09-02T08:22:13;98614.81;;;24.69;58.89
58668;BME280;59852;43.086;25.634;2022-09-02T08:24:39;98620.09;;;24.56;59.50
58668;BME280;59852;43.086;25.634;2022-09-02T08:27:04;98613.56;;;24.58;59.15
58668;BME280;59852;43.086;25.634;2022-09-02T08:29:30;98611.47;;;24.67;58.44
58668;BME280;59852;43.086;25.634;2022-09-02T08:31:55;98611.50;;;24.60;59.42
58668;BME280;59852;43.086;25.634;2022-09-02T08:34:21;98612.53;;;24.59;58.67
58668;BME280;59852;43.086;25.634;2022-09-02T08:36:46;98617.44;;;24.49;58.11
58668;BME280;59852;43.086;25.634;2022-09-02T08:39:12;98604.63;;;24.38;59.18
58668;BME280;59852;43.086;25.634;2022-09-02T08:44:05;98603.47;;;24.74;57.84
58668;BME280;59852;43.086;25.634;2022-09-02T08:46:31;98599.34;;;24.65;57.77
58668;BME280;59852;43.086;25.634;2022-09-02T08:48:59;98599.94;;;24.53;59.44
58668;BME280;59852;43.086;25.634;2022-09-02T08:56:36;98576.50;;;24.49;59.97
58668;BME280;59852;43.086;25.634;2022-09-02T08:59:02;98579.97;;;24.43;59.15
58668;BME280;59852;43.086;25.634;2022-09-02T09:11:50;98565.84;;;24.82;57.11
58668;BME280;59852;43.086;25.634;2022-09-02T09:16:57;98557.38;;;24.65;58.08
58668;BME280;59852;43.086;25.634;2022-09-02T09:22:06;98556.72;;;24.43;59.52
58668;BME280;59852;43.086;25.634;2022-09-02T09:24:38;98558.19;;;24.39;58.94
58668;BME280;59852;43.086;25.634;2022-09-02T09:27:06;98562.31;;;24.48;58.54
58668;BME280;59852;43.086;25.634;2022-09-02T09:29:33;98564.13;;;24.48;58.86
58668;BME280;59852;43.086;25.634;2022-09-02T09:32:00;98563.50;;;24.46;60.25
58668;BME280;59852;43.086;25.634;2022-09-02T09:35:12;98561.69;;;24.40;60.75
58668;BME280;59852;43.086;25.634;2022-09-02T09:37:23;98558.91;;;24.26;61.28
58668;BME280;59852;43.086;25.634;2022-09-02T09:39:51;98559.72;;;24.27;63.25
58668;BME280;59852;43.086;25.634;2022-09-02T09:42:27;98558.25;;;24.18;65.30
58668;BME280;59852;43.086;25.634;2022-09-02T09:44:53;98554.16;;;24.15;66.07
58668;BME280;59852;43.086;25.634;2022-09-02T09:47:20;98551.94;;;24.19;60.04
58668;BME280;59852;43.086;25.634;2022-09-02T09:49:48;98559.28;;;24.17;60.26
58668;BME280;59852;43.086;25.634;2022-09-02T09:54:58;98549.66;;;24.22;59.73
58668;BME280;59852;43.086;25.634;2022-09-02T09:57:29;98553.94;;;24.17;59.65
58668;BME280;59852;43.086;25.634;2022-09-02T09:59:55;98554.41;;;24.20;61.14
58668;BME280;59852;43.086;25.634;2022-09-02T10:02:26;98548.41;;;24.18;62.13
58668;BME280;59852;43.086;25.634;2022-09-02T10:04:53;98542.75;;;23.87;67.19
58668;BME280;59852;43.086;25.634;2022-09-02T10:07:36;98552.41;;;23.88;72.21
58668;BME280;59852;43.086;25.634;2022-09-02T10:10:23;98546.88;;;23.96;73.44
58668;BME280;59852;43.086;25.634;2022-09-02T10:12:48;98548.97;;;24.00;72.87
58668;BME280;59852;43.086;25.634;2022-09-02T10:15:14;98551.28;;;24.10;72.38
58668;BME280;59852;43.086;25.634;2022-09-02T10:17:49;98546.56;;;24.12;72.84
58668;BME280;59852;43.086;25.634;2022-09-02T10:20:24;98546.09;;;24.09;72.83
58668;BME280;59852;43.086;25.634;2022-09-02T10:23:04;98545.28;;;24.08;73.37
58668;BME280;59852;43.086;25.634;2022-09-02T10:25:47;98543.06;;;24.12;69.80
58668;BME280;59852;43.086;25.634;2022-09-02T10:36:23;98539.69;;;23.90;74.71
58668;BME280;59852;43.086;25.634;2022-09-02T10:38:48;98536.19;;;23.89;73.04
58668;BME280;59852;43.086;25.634;2022-09-02T10:46:46;98550.53;;;23.82;72.58
58668;BME280;59852;43.086;25.634;2022-09-02T10:49:29;98552.91;;;23.63;76.35
58668;BME280;59852;43.086;25.634;2022-09-02T10:59:56;98570.25;;;23.18;82.91
58668;BME280;59852;43.086;25.634;2022-09-02T11:02:25;98570.22;;;23.11;82.72
58668;BME280;59852;43.086;25.634;2022-09-02T11:07:21;98563.06;;;23.18;80.94
58668;BME280;59852;43.086;25.634;2022-09-02T11:09:49;98553.59;;;23.16;79.66
58668;BME280;59852;43.086;25.634;2022-09-02T11:15:08;98550.41;;;23.27;80.39
58668;BME280;59852;43.086;25.634;2022-09-02T11:20:12;98555.38;;;23.65;78.42
58668;BME280;59852;43.086;25.634;2022-09-02T11:22:44;98559.81;;;23.51;80.63
58668;BME280;59852;43.086;25.634;2022-09-02T11:30:18;98561.47;;;23.24;80.57
58668;BME280;59852;43.086;25.634;2022-09-02T11:33:01;98557.06;;;23.72;78.89
58668;BME280;59852;43.086;25.634;2022-09-02T11:35:35;98555.34;;;23.99;78.54
58668;BME280;59852;43.086;25.634;2022-09-02T11:38:10;98553.75;;;24.12;78.16
58668;BME280;59852;43.086;25.634;2022-09-02T11:51:27;98552.84;;;24.66;73.16
58668;BME280;59852;43.086;25.634;2022-09-02T11:53:55;98552.75;;;24.26;74.38
58668;BME280;59852;43.086;25.634;2022-09-02T11:56:30;98560.41;;;24.36;76.00
58668;BME280;59852;43.086;25.634;2022-09-02T11:58:59;98557.06;;;24.27;74.84
58668;BME280;59852;43.086;25.634;2022-09-02T12:04:22;98544.50;;;23.60;75.79
58668;BME280;59852;43.086;25.634;2022-09-02T12:12:07;98561.06;;;23.27;77.18
58668;BME280;59852;43.086;25.634;2022-09-02T12:17:08;98586.94;;;23.27;77.00
58668;BME280;59852;43.086;25.634;2022-09-02T12:19:43;98565.63;;;23.05;79.91
58668;BME280;59852;43.086;25.634;2022-09-02T12:27:22;98569.78;;;22.29;83.24
58668;BME280;59852;43.086;25.634;2022-09-02T12:29:48;98581.94;;;22.02;82.72
58668;BME280;59852;43.086;25.634;2022-09-02T12:32:43;98580.84;;;22.26;82.86
58668;BME280;59852;43.086;25.634;2022-09-02T12:35:07;98584.13;;;22.28;82.66
58668;BME280;59852;43.086;25.634;2022-09-02T12:37:53;98585.84;;;22.14;83.72
58668;BME280;59852;43.086;25.634;2022-09-02T12:40:24;98579.03;;;21.82;84.80
58668;BME280;59852;43.086;25.634;2022-09-02T12:42:51;98590.94;;;22.01;83.60
58668;BME280;59852;43.086;25.634;2022-09-02T12:45:24;98583.72;;;22.10;83.49
58668;BME280;59852;43.086;25.634;2022-09-02T12:52:48;98584.19;;;22.13;83.36
58668;BME280;59852;43.086;25.634;2022-09-02T12:57:53;98588.31;;;22.16;82.11
58668;BME280;59852;43.086;25.634;2022-09-02T13:03:22;98584.00;;;22.15;81.89
58668;BME280;59852;43.086;25.634;2022-09-02T13:06:00;98587.59;;;22.07;82.12
58668;BME280;59852;43.086;25.634;2022-09-02T13:26:35;98588.75;;;22.04;81.96
58668;BME280;59852;43.086;25.634;2022-09-02T13:31:29;98598.69;;;21.96;82.18
58668;BME280;59852;43.086;25.634;2022-09-02T13:34:16;98597.03;;;21.80;83.83
58668;BME280;59852;43.086;25.634;2022-09-02T13:36:45;98601.06;;;21.46;86.43
58668;BME280;59852;43.086;25.634;2022-09-02T13:39:22;98588.94;;;21.88;85.05
58668;BME280;59852;43.086;25.634;2022-09-02T13:41:48;98597.03;;;22.10;83.93
58668;BME280;59852;43.086;25.634;2022-09-02T13:44:21;98594.66;;;21.85;84.67
58668;BME280;59852;43.086;25.634;2022-09-02T13:46:53;98600.72;;;21.94;84.37
58668;BME280;59852;43.086;25.634;2022-09-02T13:49:36;98600.97;;;21.99;83.33
58668;BME280;59852;43.086;25.634;2022-09-02T13:52:04;98595.94;;;22.04;82.70
58668;BME280;59852;43.086;25.634;2022-09-02T13:54:33;98587.75;;;21.91;82.97
58668;BME280;59852;43.086;25.634;2022-09-02T13:56:59;98594.38;;;21.95;82.85
58668;BME280;59852;43.086;25.634;2022-09-02T13:59:38;98594.66;;;21.85;83.13
58668;BME280;59852;43.086;25.634;2022-09-02T14:02:21;98582.34;;;21.69;83.67
58668;BME280;59852;43.086;25.634;2022-09-02T14:04:48;98588.31;;;21.71;82.99
58668;BME280;59852;43.086;25.634;2022-09-02T14:07:14;98581.97;;;21.72;82.50
58668;BME280;59852;43.086;25.634;2022-09-02T14:09:39;98576.56;;;21.66;83.98
58668;BME280;59852;43.086;25.634;2022-09-02T14:12:05;98577.28;;;21.89;83.25
58668;BME280;59852;43.086;25.634;2022-09-02T14:14:31;98574.19;;;21.86;83.11
58668;BME280;59852;43.086;25.634;2022-09-02T14:17:16;98572.25;;;21.94;82.39
58668;BME280;59852;43.086;25.634;2022-09-02T14:19:42;98561.66;;;22.01;82.95
58668;BME280;59852;43.086;25.634;2022-09-02T14:22:14;98551.56;;;22.11;82.23
58668;BME280;59852;43.086;25.634;2022-09-02T14:24:43;98560.63;;;22.02;82.26
58668;BME280;59852;43.086;25.634;2022-09-02T14:27:15;98567.81;;;22.01;83.46
58668;BME280;59852;43.086;25.634;2022-09-02T14:29:42;98567.91;;;22.08;83.33
58668;BME280;59852;43.086;25.634;2022-09-02T14:32:14;98565.25;;;22.08;82.17
58668;BME280;59852;43.086;25.634;2022-09-02T14:34:45;98569.03;;;22.14;82.37
58668;BME280;59852;43.086;25.634;2022-09-02T14:42:16;98597.22;;;22.23;81.56
58668;BME280;59852;43.086;25.634;2022-09-02T14:44:42;98596.19;;;22.24;80.25
58668;BME280;59852;43.086;25.634;2022-09-02T14:47:13;98596.00;;;22.25;79.64
58668;BME280;59852;43.086;25.634;2022-09-02T14:49:46;98593.47;;;22.39;78.24
58668;BME280;59852;43.086;25.634;2022-09-02T14:52:26;98597.75;;;22.33;78.16
58668;BME280;59852;43.086;25.634;2022-09-02T14:54:53;98588.47;;;22.50;78.42
58668;BME280;59852;43.086;25.634;2022-09-02T14:59:47;98587.28;;;22.53;78.40